Vivian, LA (71082)

2:30 PM CST on February 09, 2016 (GMT -0600)
McLeod ISD | | Change Station
CLOSE
Current Station
Personal Weather Station
Location: McLeod, TX
Elevation: 295 ft
Nearby Weather Stations
Active Advisory: Lake Wind Advisory Active Notice: Local Storm Report

Elev 295 ft 32.95 °N, 94.08 °W | Updated 12 minutes ago

Clear
Clear
56.3 °F
Feels Like 56.3 °F
N
7.8
Wind Variable Wind from WNW

Today
High -- | Low -- °F
--% Chance of Precip.
Yesterday
High -- | Low -- °F
Precip. -- in
Pressure 30.14 in
Visibility 10.0 miles
Clouds Clear
Dew Point 22 °F
Humidity 26%
Rainfall 0.05 in
Snow Depth Not available.
7:05 AM 5:55 PM
New Moon, 2% visible
METAR KDTN 091953Z 28018G28KT 10SM CLR 13/M08 A3014 RMK AO2 PK WND 28028/1949 SLP207 T01331083
Pressure 30.14 in
Visibility 10.0 miles
Clouds Clear
Dew Point 22 °F
Humidity 26%
Rainfall 0.05 in
Snow Depth Not available.
7:05 AM 5:55 PM
New Moon, 2% visible
METAR KDTN 091953Z 28018G28KT 10SM CLR 13/M08 A3014 RMK AO2 PK WND 28028/1949 SLP207 T01331083

10-Day Weather Forecast

Almanac

Astronomy

Feb. 09, 2016 Rise Set
Actual Time
Civil Twilight
Nautical Twilight
Astronomical Twilight
Moon
Length of Visible Light
Length of Day
Tomorrow will be .
, % of the Moon is Illuminated

Today's Extremes

State Highs State Lows

Community

WunderPhotos

Upload Photos

1,891,679 photos uploaded!

WunderBlog® & News

Nearby

Air Quality

  Air Quality AQ Index Pollutant
Not available.

Snow Depth

Station Depth Elevation

Earthquake Activity

City Distance Mag. Time & Date
Minimum magnitude displayed is 2.5.

Coastal Water Temperatures

Place Temperature

Stations

Nearby Weather Stations

Station Location Temp. Windchill Dew Point Humidity Wind Precip. Elev Updated Type
                   

Watches & Warnings

Lake Wind Advisory
Issued: 10:46 AM CST Feb. 9, 2016 – National Weather Service

... Lake Wind Advisory remains in effect until 4 PM CST this
afternoon...

* event... northwesterly winds between 15 and 20 mph with gusts up
to 25 to 30 mph.

* Timing... through mid afternoon.

* Impact... boaters should exercise caution on area lakes due to
rough conditions.

Precautionary/preparedness actions...

A lake Wind Advisory indicates that winds will cause rough chop
on area lakes. Small boats will be especially prone to capsizing.



12